UAL654 KDCA-KORD
Flight info
| Callsign | UAL654 |
|---|---|
| Flight time | 1h 29m |
| Altitude | 36000 |
| Route | WYNGS5 RAMAY Q72 HACKS J149 ROD WATSN4 |
| Aircraft | A319/M-SDE3FGHIRWY/LB1 |
Departure
| Time | 2026-05-04 21:56 |
|---|---|
| Airport | Ronald Reagan Washington National Airport (KDCA) |
Arrival
| Time | 2026-05-04 23:25 |
|---|---|
| Airport | Chicago O'Hare International Airport (KORD) |
| Time | Latitude | Longitude | Altitude | Speed | Heading |
|---|---|---|---|---|---|
| 2026-05-04 21:42 | 38.85097 | -77.04121 | 24 ft | 0 kts | 261° |
| 2026-05-04 21:44 | 38.85097 | -77.04120 | 24 ft | 1 kts | 261° |
| 2026-05-04 21:45 | 38.85100 | -77.04091 | 24 ft | 4 kts | 261° |
| 2026-05-04 21:45 | 38.85105 | -77.04057 | 25 ft | 4 kts | 261° |
| 2026-05-04 21:45 | 38.85109 | -77.04023 | 28 ft | 4 kts | 261° |
| 2026-05-04 21:45 | 38.85113 | -77.03996 | 27 ft | 4 kts | 272° |
| 2026-05-04 21:46 | 38.85105 | -77.03973 | 29 ft | 4 kts | 346° |
| 2026-05-04 21:46 | 38.85083 | -77.03970 | 28 ft | 1 kts | 355° |
| 2026-05-04 21:48 | 38.85125 | -77.03972 | 27 ft | 9 kts | 358° |
| 2026-05-04 21:49 | 38.85210 | -77.03980 | 24 ft | 14 kts | 352° |
| 2026-05-04 21:49 | 38.85312 | -77.03991 | 24 ft | 14 kts | 6° |
| 2026-05-04 21:49 | 38.85382 | -77.03938 | 24 ft | 12 kts | 1° |
| 2026-05-04 21:49 | 38.85473 | -77.03948 | 24 ft | 14 kts | 355° |
| 2026-05-04 21:50 | 38.85568 | -77.03958 | 25 ft | 13 kts | 355° |
| 2026-05-04 21:50 | 38.85620 | -77.03964 | 25 ft | 0 kts | 355° |
| 2026-05-04 21:50 | 38.85627 | -77.03964 | 25 ft | 4 kts | 355° |
| 2026-05-04 21:50 | 38.85697 | -77.03971 | 27 ft | 14 kts | 355° |
| 2026-05-04 21:51 | 38.85794 | -77.03981 | 28 ft | 15 kts | 355° |
| 2026-05-04 21:51 | 38.85868 | -77.03989 | 26 ft | 4 kts | 355° |
| 2026-05-04 21:51 | 38.85878 | -77.03990 | 26 ft | 3 kts | 355° |
| 2026-05-04 21:51 | 38.85907 | -77.03991 | 25 ft | 4 kts | 3° |
| 2026-05-04 21:52 | 38.85923 | -77.03987 | 25 ft | 0 kts | 12° |
| 2026-05-04 21:52 | 38.85943 | -77.03981 | 24 ft | 5 kts | 14° |
| 2026-05-04 21:52 | 38.85987 | -77.03965 | 24 ft | 8 kts | 18° |
| 2026-05-04 21:53 | 38.86006 | -77.03956 | 24 ft | 0 kts | 19° |
| 2026-05-04 21:53 | 38.86030 | -77.03945 | 25 ft | 14 kts | 20° |
| 2026-05-04 21:53 | 38.86070 | -77.03863 | 25 ft | 10 kts | 161° |
| 2026-05-04 21:54 | 38.86033 | -77.03863 | 24 ft | 0 kts | 176° |
| 2026-05-04 21:55 | 38.86023 | -77.03863 | 24 ft | 13 kts | 176° |
| 2026-05-04 21:56 | 38.85724 | -77.03833 | 25 ft | 73 kts | 175° |
| 2026-05-04 21:56 | 38.85022 | -77.03763 | 24 ft | 128 kts | 175° |
| 2026-05-04 21:56 | 38.84046 | -77.03667 | 376 ft | 146 kts | 176° |
| 2026-05-04 21:56 | 38.83005 | -77.03576 | 916 ft | 156 kts | 180° |
| 2026-05-04 21:57 | 38.81891 | -77.03520 | 1510 ft | 164 kts | 182° |
| 2026-05-04 21:57 | 38.80725 | -77.03486 | 2111 ft | 171 kts | 182° |
| 2026-05-04 21:57 | 38.79500 | -77.03472 | 2537 ft | 186 kts | 182° |
| 2026-05-04 21:57 | 38.78091 | -77.03484 | 2775 ft | 219 kts | 183° |
| 2026-05-04 21:58 | 38.76458 | -77.03549 | 3165 ft | 248 kts | 188° |
| 2026-05-04 21:58 | 38.74854 | -77.04385 | 4009 ft | 254 kts | 221° |
| 2026-05-04 21:58 | 38.73945 | -77.06311 | 5045 ft | 259 kts | 254° |
| 2026-05-04 21:58 | 38.73787 | -77.08608 | 6171 ft | 260 kts | 269° |
| 2026-05-04 21:59 | 38.73884 | -77.10917 | 7197 ft | 261 kts | 272° |
| 2026-05-04 21:59 | 38.74003 | -77.13237 | 8188 ft | 262 kts | 272° |
| 2026-05-04 21:59 | 38.74057 | -77.15572 | 9192 ft | 263 kts | 270° |
| 2026-05-04 21:59 | 38.74034 | -77.17916 | 10134 ft | 265 kts | 269° |
| 2026-05-04 22:00 | 38.73958 | -77.20367 | 10541 ft | 287 kts | 268° |
| 2026-05-04 22:00 | 38.73983 | -77.23021 | 10792 ft | 310 kts | 275° |
| 2026-05-04 22:00 | 38.74441 | -77.25805 | 11142 ft | 328 kts | 287° |
| 2026-05-04 22:00 | 38.75389 | -77.28498 | 11830 ft | 335 kts | 298° |
| 2026-05-04 22:01 | 38.76613 | -77.31047 | 12622 ft | 337 kts | 299° |
| 2026-05-04 22:01 | 38.77844 | -77.33611 | 13432 ft | 338 kts | 299° |
| 2026-05-04 22:01 | 38.79079 | -77.36189 | 14177 ft | 340 kts | 299° |
| 2026-05-04 22:01 | 38.80324 | -77.38790 | 14783 ft | 345 kts | 299° |
| 2026-05-04 22:02 | 38.81589 | -77.41429 | 15370 ft | 350 kts | 299° |
| 2026-05-04 22:02 | 38.82871 | -77.44107 | 15933 ft | 355 kts | 299° |
| 2026-05-04 22:02 | 38.84169 | -77.46824 | 16516 ft | 360 kts | 299° |
| 2026-05-04 22:02 | 38.85485 | -77.49588 | 17097 ft | 365 kts | 299° |
| 2026-05-04 22:03 | 38.86816 | -77.52389 | 17681 ft | 371 kts | 299° |
| 2026-05-04 22:03 | 38.88171 | -77.55235 | 18253 ft | 376 kts | 299° |
| 2026-05-04 22:03 | 38.89542 | -77.58113 | 18787 ft | 380 kts | 300° |
| 2026-05-04 22:03 | 38.90924 | -77.61017 | 19392 ft | 382 kts | 300° |
| 2026-05-04 22:04 | 38.92310 | -77.63931 | 20007 ft | 384 kts | 299° |
| 2026-05-04 22:04 | 38.93498 | -77.67005 | 20499 ft | 386 kts | 289° |
| 2026-05-04 22:04 | 38.94214 | -77.70333 | 21026 ft | 388 kts | 279° |
| 2026-05-04 22:04 | 38.94460 | -77.73792 | 21550 ft | 391 kts | 272° |
| 2026-05-04 22:05 | 38.94576 | -77.77290 | 22050 ft | 393 kts | 272° |
| 2026-05-04 22:05 | 38.94698 | -77.80812 | 22542 ft | 396 kts | 273° |
| 2026-05-04 22:05 | 38.94824 | -77.84360 | 23019 ft | 399 kts | 273° |
| 2026-05-04 22:05 | 38.94953 | -77.87927 | 23483 ft | 402 kts | 273° |
| 2026-05-04 22:06 | 38.95084 | -77.91525 | 23890 ft | 404 kts | 273° |
| 2026-05-04 22:06 | 38.95210 | -77.95122 | 24337 ft | 404 kts | 273° |
| 2026-05-04 22:06 | 38.95332 | -77.98726 | 24835 ft | 403 kts | 273° |
| 2026-05-04 22:06 | 38.95452 | -78.02321 | 25284 ft | 404 kts | 273° |
| 2026-05-04 22:07 | 38.95572 | -78.05930 | 25709 ft | 405 kts | 273° |
| 2026-05-04 22:07 | 38.95691 | -78.09553 | 26124 ft | 407 kts | 273° |
| 2026-05-04 22:07 | 38.95808 | -78.13191 | 26532 ft | 408 kts | 273° |
| 2026-05-04 22:07 | 38.95925 | -78.16842 | 26924 ft | 410 kts | 273° |
| 2026-05-04 22:08 | 38.96042 | -78.20509 | 27304 ft | 412 kts | 273° |
| 2026-05-04 22:08 | 38.96180 | -78.24191 | 27680 ft | 413 kts | 274° |
| 2026-05-04 22:08 | 38.96385 | -78.27885 | 28039 ft | 415 kts | 275° |
| 2026-05-04 22:08 | 38.96637 | -78.31585 | 28404 ft | 417 kts | 276° |
| 2026-05-04 22:09 | 38.96908 | -78.35301 | 28765 ft | 418 kts | 276° |
| 2026-05-04 22:09 | 38.97181 | -78.39030 | 29112 ft | 420 kts | 276° |
| 2026-05-04 22:09 | 38.97444 | -78.42777 | 29465 ft | 421 kts | 276° |
| 2026-05-04 22:09 | 38.97693 | -78.46518 | 29973 ft | 419 kts | 275° |
| 2026-05-04 22:10 | 38.97930 | -78.50246 | 30387 ft | 418 kts | 275° |
| 2026-05-04 22:10 | 38.98159 | -78.53973 | 30761 ft | 418 kts | 275° |
| 2026-05-04 22:10 | 38.98385 | -78.57699 | 31105 ft | 418 kts | 275° |
| 2026-05-04 22:10 | 38.98613 | -78.61431 | 31451 ft | 419 kts | 276° |
| 2026-05-04 22:11 | 38.98844 | -78.65166 | 31829 ft | 420 kts | 276° |
| 2026-05-04 22:11 | 38.99075 | -78.68906 | 32219 ft | 420 kts | 276° |
| 2026-05-04 22:11 | 38.99307 | -78.72649 | 32595 ft | 420 kts | 276° |
| 2026-05-04 22:11 | 38.99535 | -78.76396 | 32967 ft | 421 kts | 276° |
| 2026-05-04 22:12 | 38.99763 | -78.80150 | 33327 ft | 421 kts | 276° |
| 2026-05-04 22:12 | 38.99989 | -78.83903 | 33700 ft | 422 kts | 276° |
| 2026-05-04 22:12 | 39.00215 | -78.87667 | 34044 ft | 422 kts | 276° |
| 2026-05-04 22:12 | 39.00440 | -78.91430 | 34377 ft | 422 kts | 276° |
| 2026-05-04 22:13 | 39.00667 | -78.95198 | 34736 ft | 422 kts | 276° |
| 2026-05-04 22:13 | 39.00891 | -78.98958 | 35098 ft | 422 kts | 275° |
| 2026-05-04 22:13 | 39.01111 | -79.02715 | 35455 ft | 421 kts | 275° |
| 2026-05-04 22:13 | 39.01329 | -79.06469 | 35794 ft | 421 kts | 275° |
| 2026-05-04 22:14 | 39.01545 | -79.10212 | 35979 ft | 419 kts | 275° |
| 2026-05-04 22:14 | 39.01968 | -79.17638 | 36019 ft | 415 kts | 275° |
| 2026-05-04 22:15 | 39.02427 | -79.25003 | 36017 ft | 414 kts | 276° |
| 2026-05-04 22:15 | 39.02928 | -79.32379 | 36020 ft | 414 kts | 276° |
| 2026-05-04 22:16 | 39.03422 | -79.39753 | 36022 ft | 414 kts | 276° |
| 2026-05-04 22:16 | 39.03896 | -79.47134 | 36015 ft | 414 kts | 275° |
| 2026-05-04 22:17 | 39.04350 | -79.54471 | 36015 ft | 414 kts | 275° |
| 2026-05-04 22:17 | 39.04812 | -79.61865 | 36018 ft | 414 kts | 276° |
| 2026-05-04 22:18 | 39.05271 | -79.69256 | 36031 ft | 414 kts | 275° |
| 2026-05-04 22:18 | 39.05729 | -79.76651 | 36032 ft | 414 kts | 275° |
| 2026-05-04 22:19 | 39.06183 | -79.84039 | 36031 ft | 414 kts | 275° |
| 2026-05-04 22:19 | 39.06631 | -79.91435 | 36026 ft | 415 kts | 275° |
| 2026-05-04 22:20 | 39.07072 | -79.98837 | 36023 ft | 415 kts | 275° |
| 2026-05-04 22:20 | 39.07509 | -80.06248 | 36012 ft | 415 kts | 275° |
| 2026-05-04 22:21 | 39.07943 | -80.13662 | 35998 ft | 415 kts | 275° |
| 2026-05-04 22:21 | 39.08367 | -80.21072 | 35998 ft | 415 kts | 275° |
| 2026-05-04 22:22 | 39.08779 | -80.28479 | 36002 ft | 415 kts | 275° |
| 2026-05-04 22:22 | 39.09197 | -80.35882 | 35991 ft | 415 kts | 275° |
| 2026-05-04 22:23 | 39.09599 | -80.43234 | 35987 ft | 415 kts | 275° |
| 2026-05-04 22:23 | 39.09992 | -80.50641 | 35986 ft | 415 kts | 275° |
| 2026-05-04 22:24 | 39.10376 | -80.58051 | 35979 ft | 415 kts | 274° |
| 2026-05-04 22:24 | 39.10759 | -80.65455 | 35979 ft | 414 kts | 275° |
| 2026-05-04 22:25 | 39.11141 | -80.72860 | 35985 ft | 414 kts | 274° |
| 2026-05-04 22:25 | 39.11521 | -80.80262 | 35988 ft | 414 kts | 275° |
| 2026-05-04 22:26 | 39.11891 | -80.87669 | 35988 ft | 415 kts | 274° |
| 2026-05-04 22:26 | 39.12251 | -80.95075 | 35990 ft | 414 kts | 274° |
| 2026-05-04 22:27 | 39.12609 | -81.02472 | 36002 ft | 414 kts | 274° |
| 2026-05-04 22:27 | 39.13457 | -81.09769 | 35992 ft | 413 kts | 287° |
| 2026-05-04 22:28 | 39.15896 | -81.16455 | 35993 ft | 413 kts | 297° |
| 2026-05-04 22:28 | 39.18594 | -81.23000 | 35992 ft | 413 kts | 297° |
| 2026-05-04 22:29 | 39.21276 | -81.29561 | 35994 ft | 414 kts | 296° |
| 2026-05-04 22:29 | 39.23955 | -81.36120 | 35987 ft | 413 kts | 296° |
| 2026-05-04 22:30 | 39.26630 | -81.42681 | 36006 ft | 413 kts | 296° |
| 2026-05-04 22:30 | 39.29303 | -81.49243 | 35989 ft | 414 kts | 296° |
| 2026-05-04 22:31 | 39.31979 | -81.55820 | 35985 ft | 414 kts | 296° |
| 2026-05-04 22:31 | 39.34657 | -81.62411 | 35967 ft | 415 kts | 296° |
| 2026-05-04 22:32 | 39.37307 | -81.68964 | 35964 ft | 415 kts | 296° |
| 2026-05-04 22:32 | 39.39973 | -81.75584 | 35957 ft | 415 kts | 296° |
| 2026-05-04 22:33 | 39.42639 | -81.82209 | 35957 ft | 415 kts | 296° |
| 2026-05-04 22:33 | 39.45307 | -81.88836 | 35959 ft | 416 kts | 296° |
| 2026-05-04 22:34 | 39.47980 | -81.95471 | 35960 ft | 416 kts | 296° |
| 2026-05-04 22:34 | 39.50635 | -82.02115 | 35955 ft | 416 kts | 296° |
| 2026-05-04 22:35 | 39.53288 | -82.08765 | 35956 ft | 416 kts | 296° |
| 2026-05-04 22:35 | 39.55942 | -82.15424 | 35954 ft | 416 kts | 296° |
| 2026-05-04 22:36 | 39.58590 | -82.22097 | 35950 ft | 417 kts | 296° |
| 2026-05-04 22:36 | 39.61241 | -82.28781 | 35942 ft | 417 kts | 296° |
| 2026-05-04 22:37 | 39.63889 | -82.35466 | 35941 ft | 417 kts | 296° |
| 2026-05-04 22:37 | 39.66533 | -82.42171 | 35935 ft | 417 kts | 295° |
| 2026-05-04 22:38 | 39.69179 | -82.48877 | 35936 ft | 418 kts | 295° |
| 2026-05-04 22:38 | 39.71821 | -82.55599 | 35947 ft | 418 kts | 295° |
| 2026-05-04 22:39 | 39.74014 | -82.61195 | 35949 ft | 418 kts | 295° |
| 2026-05-04 22:39 | 39.76651 | -82.67934 | 35951 ft | 418 kts | 295° |
| 2026-05-04 22:40 | 39.79281 | -82.74677 | 35951 ft | 418 kts | 295° |
| 2026-05-04 22:40 | 39.81915 | -82.81429 | 35939 ft | 419 kts | 295° |
| 2026-05-04 22:41 | 39.84550 | -82.88189 | 35932 ft | 419 kts | 295° |
| 2026-05-04 22:41 | 39.87176 | -82.94961 | 35932 ft | 419 kts | 295° |
| 2026-05-04 22:42 | 39.89802 | -83.01748 | 35923 ft | 420 kts | 295° |
| 2026-05-04 22:42 | 39.92426 | -83.08538 | 35923 ft | 420 kts | 295° |
| 2026-05-04 22:43 | 39.95043 | -83.15335 | 35925 ft | 420 kts | 295° |
| 2026-05-04 22:43 | 39.97661 | -83.22137 | 35927 ft | 420 kts | 295° |
| 2026-05-04 22:44 | 40.00278 | -83.28941 | 35924 ft | 420 kts | 295° |
| 2026-05-04 22:44 | 40.02883 | -83.35751 | 35916 ft | 419 kts | 295° |
| 2026-05-04 22:45 | 40.05485 | -83.42565 | 35910 ft | 419 kts | 295° |
| 2026-05-04 22:45 | 40.09371 | -83.52792 | 35914 ft | 419 kts | 295° |
| 2026-05-04 22:46 | 40.11955 | -83.59605 | 35943 ft | 418 kts | 295° |
| 2026-05-04 22:46 | 40.14531 | -83.66407 | 35966 ft | 417 kts | 295° |
| 2026-05-04 22:47 | 40.17102 | -83.73198 | 35991 ft | 417 kts | 295° |
| 2026-05-04 22:47 | 40.19673 | -83.79989 | 36009 ft | 416 kts | 295° |
| 2026-05-04 22:48 | 40.22232 | -83.86790 | 36020 ft | 416 kts | 294° |
| 2026-05-04 22:48 | 40.24779 | -83.93588 | 36009 ft | 416 kts | 295° |
| 2026-05-04 22:49 | 40.27322 | -84.00388 | 36003 ft | 415 kts | 295° |
| 2026-05-04 22:49 | 40.30340 | -84.06834 | 35982 ft | 418 kts | 307° |
| 2026-05-04 22:50 | 40.33993 | -84.12752 | 35883 ft | 417 kts | 306° |
| 2026-05-04 22:50 | 40.37617 | -84.18672 | 35882 ft | 416 kts | 306° |
| 2026-05-04 22:51 | 40.41239 | -84.24606 | 35879 ft | 416 kts | 306° |
| 2026-05-04 22:51 | 40.44850 | -84.30533 | 35880 ft | 416 kts | 306° |
| 2026-05-04 22:52 | 40.48434 | -84.36410 | 35881 ft | 415 kts | 306° |
| 2026-05-04 22:52 | 40.52059 | -84.42366 | 35858 ft | 414 kts | 306° |
| 2026-05-04 22:53 | 40.55629 | -84.48252 | 35854 ft | 414 kts | 306° |
| 2026-05-04 22:53 | 40.59212 | -84.54181 | 35848 ft | 414 kts | 306° |
| 2026-05-04 22:54 | 40.62792 | -84.60108 | 35841 ft | 414 kts | 306° |
| 2026-05-04 22:54 | 40.66373 | -84.66034 | 35841 ft | 414 kts | 306° |
| 2026-05-04 22:55 | 40.69953 | -84.71967 | 35846 ft | 413 kts | 306° |
| 2026-05-04 22:55 | 40.73521 | -84.77906 | 35846 ft | 413 kts | 306° |
| 2026-05-04 22:56 | 40.77078 | -84.83842 | 35843 ft | 412 kts | 306° |
| 2026-05-04 22:56 | 40.80632 | -84.89771 | 35852 ft | 412 kts | 305° |
| 2026-05-04 22:57 | 40.84181 | -84.95712 | 35841 ft | 412 kts | 305° |
| 2026-05-04 22:57 | 40.87719 | -85.01651 | 35835 ft | 411 kts | 305° |
| 2026-05-04 22:58 | 40.91256 | -85.07598 | 35819 ft | 411 kts | 304° |
| 2026-05-04 22:58 | 40.94782 | -85.13530 | 35817 ft | 411 kts | 305° |
| 2026-05-04 22:59 | 40.98327 | -85.19467 | 35817 ft | 412 kts | 306° |
| 2026-05-04 22:59 | 41.02120 | -85.25172 | 35817 ft | 414 kts | 309° |
| 2026-05-04 23:00 | 41.06073 | -85.30715 | 35826 ft | 414 kts | 309° |
| 2026-05-04 23:00 | 41.10011 | -85.36307 | 35821 ft | 414 kts | 309° |
| 2026-05-04 23:01 | 41.13888 | -85.41943 | 35822 ft | 414 kts | 308° |
| 2026-05-04 23:01 | 41.17398 | -85.47780 | 35790 ft | 409 kts | 296° |
| 2026-05-04 23:02 | 41.19488 | -85.54608 | 35788 ft | 405 kts | 285° |
| 2026-05-04 23:02 | 41.21200 | -85.61736 | 35784 ft | 405 kts | 285° |
| 2026-05-04 23:03 | 41.22917 | -85.68866 | 35783 ft | 405 kts | 285° |
| 2026-05-04 23:03 | 41.24631 | -85.76007 | 35783 ft | 406 kts | 285° |
| 2026-05-04 23:04 | 41.26330 | -85.83155 | 35792 ft | 406 kts | 285° |
| 2026-05-04 23:04 | 41.27295 | -85.90436 | 35788 ft | 403 kts | 275° |
| 2026-05-04 23:05 | 41.27890 | -85.97852 | 35808 ft | 404 kts | 275° |
| 2026-05-04 23:05 | 41.28503 | -86.05270 | 35797 ft | 404 kts | 276° |
| 2026-05-04 23:06 | 41.29331 | -86.12666 | 35791 ft | 404 kts | 278° |
| 2026-05-04 23:06 | 41.30271 | -86.20039 | 35784 ft | 404 kts | 278° |
| 2026-05-04 23:07 | 41.31176 | -86.27418 | 35769 ft | 404 kts | 277° |
| 2026-05-04 23:07 | 41.32035 | -86.34799 | 35763 ft | 404 kts | 277° |
| 2026-05-04 23:08 | 41.32877 | -86.42188 | 35758 ft | 404 kts | 277° |
| 2026-05-04 23:08 | 41.33722 | -86.49568 | 35752 ft | 404 kts | 277° |
| 2026-05-04 23:09 | 41.34242 | -86.53238 | 35641 ft | 405 kts | 283° |
| 2026-05-04 23:09 | 41.35188 | -86.56782 | 35390 ft | 408 kts | 291° |
| 2026-05-04 23:09 | 41.36493 | -86.60163 | 35141 ft | 411 kts | 294° |
| 2026-05-04 23:09 | 41.37838 | -86.63525 | 34729 ft | 413 kts | 296° |
| 2026-05-04 23:10 | 41.39479 | -86.66732 | 33842 ft | 425 kts | 305° |
| 2026-05-04 23:10 | 41.41577 | -86.69572 | 32843 ft | 437 kts | 315° |
| 2026-05-04 23:10 | 41.44098 | -86.71912 | 31856 ft | 448 kts | 326° |
| 2026-05-04 23:10 | 41.46899 | -86.73801 | 30783 ft | 455 kts | 329° |
| 2026-05-04 23:11 | 41.49752 | -86.75671 | 29648 ft | 460 kts | 330° |
| 2026-05-04 23:11 | 41.52749 | -86.77284 | 28497 ft | 468 kts | 338° |
| 2026-05-04 23:11 | 41.55913 | -86.78283 | 27271 ft | 475 kts | 346° |
| 2026-05-04 23:11 | 41.59231 | -86.78709 | 25965 ft | 481 kts | 351° |
| 2026-05-04 23:12 | 41.62573 | -86.79032 | 24788 ft | 482 kts | 351° |
| 2026-05-04 23:12 | 41.65896 | -86.79348 | 23972 ft | 474 kts | 351° |
| 2026-05-04 23:12 | 41.69154 | -86.79691 | 23118 ft | 467 kts | 350° |
| 2026-05-04 23:12 | 41.72367 | -86.80085 | 22217 ft | 459 kts | 349° |
| 2026-05-04 23:13 | 41.75518 | -86.80507 | 21420 ft | 450 kts | 349° |
| 2026-05-04 23:13 | 41.78595 | -86.80969 | 20625 ft | 441 kts | 347° |
| 2026-05-04 23:13 | 41.81608 | -86.81569 | 19835 ft | 433 kts | 345° |
| 2026-05-04 23:13 | 41.84484 | -86.82513 | 19073 ft | 419 kts | 335° |
| 2026-05-04 23:14 | 41.87050 | -86.84107 | 18359 ft | 407 kts | 325° |
| 2026-05-04 23:14 | 41.89408 | -86.86200 | 17601 ft | 396 kts | 317° |
| 2026-05-04 23:14 | 41.91486 | -86.88488 | 16962 ft | 388 kts | 316° |
| 2026-05-04 23:14 | 41.93554 | -86.90768 | 16713 ft | 372 kts | 316° |
| 2026-05-04 23:15 | 41.95500 | -86.92939 | 16170 ft | 367 kts | 313° |
| 2026-05-04 23:15 | 41.97133 | -86.95595 | 15404 ft | 369 kts | 297° |
| 2026-05-04 23:15 | 41.98058 | -86.98810 | 14254 ft | 373 kts | 279° |
| 2026-05-04 23:15 | 41.98221 | -87.02283 | 13373 ft | 372 kts | 271° |
| 2026-05-04 23:16 | 41.98267 | -87.05687 | 13122 ft | 351 kts | 271° |
| 2026-05-04 23:16 | 41.98317 | -87.08831 | 12957 ft | 321 kts | 271° |
| 2026-05-04 23:16 | 41.98368 | -87.11698 | 12816 ft | 295 kts | 271° |
| 2026-05-04 23:16 | 41.98417 | -87.14364 | 12676 ft | 277 kts | 271° |
| 2026-05-04 23:17 | 41.98464 | -87.16904 | 12481 ft | 268 kts | 271° |
| 2026-05-04 23:17 | 41.98509 | -87.19394 | 12126 ft | 265 kts | 271° |
| 2026-05-04 23:17 | 41.98549 | -87.21867 | 11735 ft | 264 kts | 271° |
| 2026-05-04 23:17 | 41.98589 | -87.24331 | 11343 ft | 264 kts | 271° |
| 2026-05-04 23:18 | 41.98630 | -87.26791 | 10953 ft | 263 kts | 271° |
| 2026-05-04 23:18 | 41.98672 | -87.29245 | 10573 ft | 262 kts | 271° |
| 2026-05-04 23:18 | 41.98708 | -87.31695 | 10196 ft | 262 kts | 271° |
| 2026-05-04 23:18 | 41.98726 | -87.34144 | 9819 ft | 261 kts | 270° |
| 2026-05-04 23:19 | 41.98734 | -87.36578 | 9530 ft | 258 kts | 270° |
| 2026-05-04 23:19 | 41.98737 | -87.38948 | 9403 ft | 249 kts | 270° |
| 2026-05-04 23:19 | 41.98740 | -87.41232 | 9268 ft | 240 kts | 270° |
| 2026-05-04 23:19 | 41.98745 | -87.43444 | 9136 ft | 232 kts | 270° |
| 2026-05-04 23:20 | 41.98751 | -87.45578 | 9006 ft | 225 kts | 270° |
| 2026-05-04 23:20 | 41.98757 | -87.47641 | 8877 ft | 218 kts | 270° |
| 2026-05-04 23:20 | 41.98763 | -87.49648 | 8746 ft | 211 kts | 270° |
| 2026-05-04 23:20 | 41.98769 | -87.51621 | 8316 ft | 215 kts | 270° |
| 2026-05-04 23:21 | 41.98768 | -87.53698 | 7722 ft | 229 kts | 270° |
| 2026-05-04 23:21 | 41.98772 | -87.55888 | 7189 ft | 239 kts | 270° |
| 2026-05-04 23:21 | 41.98778 | -87.58177 | 6487 ft | 252 kts | 269° |
| 2026-05-04 23:21 | 41.98785 | -87.60591 | 5737 ft | 264 kts | 269° |
| 2026-05-04 23:22 | 41.98792 | -87.63105 | 4975 ft | 273 kts | 269° |
| 2026-05-04 23:22 | 41.98798 | -87.65687 | 4233 ft | 278 kts | 268° |
| 2026-05-04 23:22 | 41.98805 | -87.68297 | 3630 ft | 277 kts | 267° |
| 2026-05-04 23:22 | 41.98811 | -87.70852 | 3241 ft | 270 kts | 266° |
| 2026-05-04 23:23 | 41.98815 | -87.73363 | 2891 ft | 267 kts | 267° |
| 2026-05-04 23:23 | 41.98819 | -87.75841 | 2539 ft | 264 kts | 266° |
| 2026-05-04 23:23 | 41.98822 | -87.78311 | 2199 ft | 264 kts | 266° |
| 2026-05-04 23:23 | 41.98825 | -87.80752 | 1865 ft | 256 kts | 265° |
| 2026-05-04 23:24 | 41.98831 | -87.83025 | 1541 ft | 226 kts | 267° |
| 2026-05-04 23:24 | 41.98837 | -87.84862 | 1289 ft | 171 kts | 262° |
| 2026-05-04 23:24 | 41.98839 | -87.86325 | 1081 ft | 146 kts | 264° |
| 2026-05-04 23:24 | 41.98838 | -87.87208 | 963 ft | 141 kts | 263° |
| 2026-05-04 23:25 | 41.98832 | -87.88536 | 811 ft | 143 kts | 266° |
| 2026-05-04 23:25 | 41.98833 | -87.89843 | 674 ft | 131 kts | 265° |
| 2026-05-04 23:25 | 41.98831 | -87.90888 | 667 ft | 89 kts | 270° |
| 2026-05-04 23:25 | 41.98829 | -87.91489 | 668 ft | 40 kts | 270° |
| 2026-05-04 23:26 | 41.98829 | -87.91816 | 668 ft | 34 kts | 270° |
| 2026-05-04 23:26 | 41.98827 | -87.92123 | 672 ft | 30 kts | 269° |
| 2026-05-04 23:26 | 41.98829 | -87.92318 | 671 ft | 18 kts | 267° |
| 2026-05-04 23:26 | 41.98781 | -87.92407 | 671 ft | 10 kts | 185° |
| 2026-05-04 23:27 | 41.98708 | -87.92407 | 671 ft | 6 kts | 179° |
| 2026-05-04 23:27 | 41.98684 | -87.92405 | 671 ft | 5 kts | 176° |